createdAt,value
2023-03-26T00:00:14.976Z,64.40
2023-03-26T00:01:49.764Z,64.50
2023-03-26T00:03:23.283Z,64.40
2023-03-26T00:04:56.354Z,64.60
2023-03-26T00:06:35.036Z,64.60
2023-03-26T00:08:08.706Z,64.70
2023-03-26T00:09:44.072Z,64.90
2023-03-26T00:11:20.114Z,65.00
2023-03-26T00:12:53.294Z,65.10
2023-03-26T00:14:26.592Z,65.00
2023-03-26T00:15:59.862Z,65.10
2023-03-26T00:17:33.440Z,65.10
2023-03-26T00:19:06.761Z,65.10
2023-03-26T00:20:38.875Z,65.10
2023-03-26T00:22:13.467Z,65.20
2023-03-26T00:23:45.978Z,65.20
2023-03-26T00:25:21.393Z,65.10
2023-03-26T00:26:54.866Z,65.10
2023-03-26T00:28:27.512Z,65.20
2023-03-26T00:30:01.312Z,65.10
2023-03-26T00:31:35.629Z,65.10
2023-03-26T00:33:11.701Z,65.10
2023-03-26T00:34:46.093Z,65.20
2023-03-26T00:36:20.258Z,65.30
2023-03-26T00:37:53.406Z,65.30
2023-03-26T00:39:27.497Z,65.30
2023-03-26T00:41:06.251Z,65.30
2023-03-26T00:42:39.947Z,65.40
2023-03-26T00:44:13.126Z,65.50
2023-03-26T00:45:46.889Z,65.50
2023-03-26T00:47:19.950Z,65.50
2023-03-26T00:48:52.081Z,65.50
2023-03-26T00:50:25.549Z,65.70
2023-03-26T00:51:58.648Z,65.60
2023-03-26T00:53:31.969Z,65.60
2023-03-26T00:55:05.858Z,65.60
2023-03-26T00:56:40.893Z,65.70
2023-03-26T00:58:14.179Z,65.60
2023-03-26T00:59:47.927Z,65.90
2023-03-26T01:01:27.940Z,65.50
2023-03-26T01:03:02.325Z,65.60
2023-03-26T01:04:37.689Z,65.50
2023-03-26T01:06:13.609Z,65.70
2023-03-26T01:07:47.111Z,65.80
2023-03-26T01:09:26.878Z,65.70
2023-03-26T01:11:07.553Z,65.80
2023-03-26T01:12:42.179Z,65.70
2023-03-26T01:14:21.153Z,65.90
2023-03-26T01:15:53.853Z,65.60
2023-03-26T01:17:33.873Z,65.60
2023-03-26T01:19:16.437Z,65.70
2023-03-26T01:20:51.155Z,65.90
2023-03-26T01:22:27.435Z,65.80
2023-03-26T01:24:05.072Z,65.90
2023-03-26T01:25:48.061Z,65.80
2023-03-26T01:27:35.608Z,65.80
2023-03-26T01:29:18.773Z,65.90
2023-03-26T01:31:10.001Z,65.80
2023-03-26T01:32:57.737Z,65.90
2023-03-26T01:34:49.898Z,65.80
2023-03-26T01:36:33.601Z,66.10
2023-03-26T01:38:22.843Z,66.70
2023-03-26T01:40:07.158Z,65.90
2023-03-26T01:41:48.217Z,65.80
2023-03-26T01:43:36.316Z,65.90
2023-03-26T01:45:16.592Z,66.00
2023-03-26T01:46:52.226Z,65.90
2023-03-26T01:48:34.554Z,65.90
2023-03-26T01:50:09.093Z,66.00
2023-03-26T01:51:43.705Z,66.00
2023-03-26T01:53:16.956Z,66.10
2023-03-26T01:54:50.435Z,66.10
2023-03-26T01:56:36.208Z,66.10
2023-03-26T01:58:16.943Z,66.10
2023-03-26T02:00:11.592Z,66.20
2023-03-26T02:01:57.228Z,66.50
2023-03-26T02:03:35.439Z,66.10
2023-03-26T02:05:21.819Z,66.00
2023-03-26T02:07:05.585Z,66.10
2023-03-26T02:08:43.391Z,66.20
2023-03-26T02:10:25.268Z,66.10
2023-03-26T02:12:03.502Z,66.20
2023-03-26T02:13:36.719Z,66.30
2023-03-26T02:15:11.805Z,66.20
2023-03-26T02:16:46.838Z,66.30
2023-03-26T02:18:24.192Z,66.30
2023-03-26T02:19:57.920Z,66.40
2023-03-26T02:21:33.856Z,66.40
2023-03-26T02:23:08.671Z,66.50
2023-03-26T02:24:41.422Z,66.50
2023-03-26T02:26:17.991Z,66.60
2023-03-26T02:28:12.647Z,66.60
2023-03-26T02:29:47.836Z,66.70
2023-03-26T02:31:21.763Z,66.80
2023-03-26T02:32:54.456Z,66.80
2023-03-26T02:34:29.132Z,66.80
2023-03-26T02:36:02.701Z,66.90
2023-03-26T02:37:35.913Z,66.80
2023-03-26T02:39:18.259Z,66.80
2023-03-26T02:40:58.680Z,66.90
2023-03-26T02:42:40.284Z,66.90
2023-03-26T02:44:15.295Z,66.90
2023-03-26T02:46:11.318Z,66.90
2023-03-26T02:48:05.423Z,66.90
2023-03-26T02:49:57.539Z,67.10
2023-03-26T02:52:00.195Z,67.10
2023-03-26T02:53:34.617Z,67.10
2023-03-26T02:55:46.262Z,67.10
2023-03-26T02:57:20.706Z,67.00
2023-03-26T02:59:20.197Z,67.00
2023-03-26T03:00:58.950Z,67.00
2023-03-26T03:02:38.309Z,67.00
2023-03-26T03:04:31.528Z,67.10
2023-03-26T03:06:26.591Z,67.00
2023-03-26T03:08:04.090Z,67.00
2023-03-26T03:09:37.355Z,67.10
2023-03-26T03:11:36.859Z,67.00
2023-03-26T03:13:10.202Z,67.10
2023-03-26T03:14:44.770Z,67.40
2023-03-26T03:16:18.529Z,67.00
2023-03-26T03:17:52.078Z,67.00
2023-03-26T03:19:26.236Z,67.00
2023-03-26T03:20:59.344Z,67.10
2023-03-26T03:22:33.436Z,67.90
2023-03-26T03:24:07.609Z,67.10
2023-03-26T03:25:43.697Z,67.20
2023-03-26T03:27:18.131Z,67.20
2023-03-26T03:28:58.635Z,67.10
2023-03-26T03:30:33.123Z,67.20
2023-03-26T03:32:12.502Z,67.20
2023-03-26T03:33:51.806Z,67.10
2023-03-26T03:35:25.788Z,67.10
2023-03-26T03:37:02.522Z,67.10
2023-03-26T03:38:42.927Z,67.00
2023-03-26T03:40:17.711Z,66.90
2023-03-26T03:41:51.350Z,66.90
2023-03-26T03:43:24.604Z,66.70
2023-03-26T03:45:15.305Z,66.80
2023-03-26T03:47:13.480Z,66.80
2023-03-26T03:48:49.579Z,66.80
2023-03-26T03:50:32.613Z,66.70
2023-03-26T03:52:23.788Z,66.50
2023-03-26T03:53:57.387Z,66.60
2023-03-26T03:56:02.774Z,66.50
2023-03-26T03:58:13.971Z,66.50
2023-03-26T03:59:48.430Z,66.50
2023-03-26T04:01:23.446Z,66.60
2023-03-26T04:03:10.034Z,66.60
2023-03-26T04:04:46.288Z,66.70
2023-03-26T04:06:22.000Z,66.70
2023-03-26T04:07:59.884Z,66.70
2023-03-26T04:09:33.380Z,66.70
2023-03-26T04:11:11.269Z,66.70
2023-03-26T04:13:03.214Z,66.70
2023-03-26T04:15:02.540Z,66.70
2023-03-26T04:16:36.192Z,66.70
2023-03-26T04:18:11.900Z,66.70
2023-03-26T04:19:48.403Z,66.80
2023-03-26T04:21:22.004Z,66.70
2023-03-26T04:22:55.134Z,66.80
2023-03-26T04:24:34.188Z,66.80
2023-03-26T04:26:32.941Z,66.90
2023-03-26T04:28:31.780Z,66.90
2023-03-26T04:30:20.996Z,67.00
2023-03-26T04:32:08.090Z,66.90
2023-03-26T04:33:47.560Z,66.80
2023-03-26T04:35:23.638Z,66.90
2023-03-26T04:37:03.080Z,66.90
2023-03-26T04:38:42.395Z,67.70
2023-03-26T04:40:20.357Z,66.90
2023-03-26T04:42:07.054Z,66.90
2023-03-26T04:43:51.335Z,66.90
2023-03-26T04:45:32.439Z,66.80
2023-03-26T04:47:05.715Z,66.80
2023-03-26T04:48:47.345Z,66.80
2023-03-26T04:50:20.836Z,66.80
2023-03-26T04:51:54.132Z,66.70
2023-03-26T04:54:02.423Z,66.70
2023-03-26T04:56:07.847Z,66.70
2023-03-26T04:58:03.286Z,66.50
2023-03-26T05:00:18.978Z,66.50
2023-03-26T05:02:00.234Z,66.50
2023-03-26T05:03:39.097Z,66.40
2023-03-26T05:05:16.566Z,66.30
2023-03-26T05:06:49.923Z,66.40
2023-03-26T05:08:30.154Z,66.30
2023-03-26T05:10:04.172Z,66.30
2023-03-26T05:11:41.448Z,66.40
2023-03-26T05:13:14.589Z,66.50
2023-03-26T05:14:54.348Z,66.40
2023-03-26T05:16:50.167Z,66.40
2023-03-26T05:18:23.574Z,66.50
2023-03-26T05:19:59.004Z,66.40
2023-03-26T05:21:33.565Z,66.50
2023-03-26T05:23:07.997Z,66.50
2023-03-26T05:25:04.031Z,66.50
2023-03-26T05:26:38.044Z,66.50
2023-03-26T05:28:12.056Z,66.50
2023-03-26T05:29:54.132Z,66.60
2023-03-26T05:31:28.032Z,66.60
2023-03-26T05:33:04.145Z,66.70
2023-03-26T05:34:45.935Z,66.70
2023-03-26T05:36:19.474Z,66.70
2023-03-26T05:38:14.352Z,66.70
2023-03-26T05:39:47.764Z,66.70
2023-03-26T05:41:40.914Z,66.50
2023-03-26T05:43:13.001Z,66.80
2023-03-26T05:44:52.026Z,66.60
2023-03-26T05:46:30.976Z,66.70
2023-03-26T05:48:04.121Z,66.70
2023-03-26T05:49:37.503Z,66.80
2023-03-26T05:51:12.189Z,66.80
2023-03-26T05:52:48.596Z,66.80
2023-03-26T05:54:35.024Z,66.80
2023-03-26T05:56:27.253Z,66.90
2023-03-26T05:58:19.152Z,66.80
2023-03-26T06:00:12.412Z,66.90
2023-03-26T06:01:54.439Z,66.90
2023-03-26T06:03:50.561Z,66.90
2023-03-26T06:05:26.373Z,66.80
2023-03-26T06:07:10.023Z,66.90
2023-03-26T06:08:46.798Z,67.00
2023-03-26T06:10:21.878Z,67.00
2023-03-26T06:11:55.202Z,67.10
2023-03-26T06:13:28.888Z,67.10
2023-03-26T06:15:02.520Z,67.20
2023-03-26T06:16:57.293Z,68.00
2023-03-26T06:18:29.554Z,67.20
2023-03-26T06:20:24.174Z,67.30
2023-03-26T06:21:58.526Z,67.30
2023-03-26T06:23:36.897Z,67.30
2023-03-26T06:25:30.237Z,67.30
2023-03-26T06:27:26.539Z,67.50
2023-03-26T06:29:18.628Z,67.50
2023-03-26T06:31:13.074Z,67.50
2023-03-26T06:32:51.174Z,67.60
2023-03-26T06:34:29.864Z,67.60
2023-03-26T06:36:03.215Z,67.60
2023-03-26T06:37:36.902Z,67.50
2023-03-26T06:39:10.120Z,67.60
2023-03-26T06:40:50.315Z,67.70
2023-03-26T06:43:08.022Z,67.70
2023-03-26T06:44:55.220Z,67.70
2023-03-26T06:46:40.630Z,67.60
2023-03-26T06:48:32.493Z,67.80
2023-03-26T06:50:24.501Z,67.70
2023-03-26T06:52:03.024Z,67.70
2023-03-26T06:53:59.302Z,67.70
2023-03-26T06:55:51.072Z,67.70
2023-03-26T06:57:45.148Z,67.70
2023-03-26T06:59:38.514Z,67.80
2023-03-26T07:01:30.308Z,67.80
2023-03-26T07:03:22.144Z,67.80
2023-03-26T07:05:14.109Z,67.80
2023-03-26T07:07:06.879Z,67.80
2023-03-26T07:08:58.602Z,67.80
2023-03-26T07:10:51.762Z,68.10
2023-03-26T07:12:47.648Z,67.80
2023-03-26T07:14:41.118Z,67.80
2023-03-26T07:16:32.666Z,68.00
2023-03-26T07:18:24.626Z,68.00
2023-03-26T07:19:59.119Z,68.00
2023-03-26T07:21:34.112Z,68.00
2023-03-26T07:23:13.707Z,68.00
2023-03-26T07:25:02.765Z,68.00
2023-03-26T07:27:02.171Z,68.00
2023-03-26T07:29:03.728Z,68.20
2023-03-26T07:31:19.145Z,68.10
2023-03-26T07:33:30.424Z,68.20
2023-03-26T07:35:33.179Z,68.30
2023-03-26T07:37:33.573Z,68.20
2023-03-26T07:39:44.561Z,68.20
2023-03-26T07:41:47.072Z,68.30
2023-03-26T07:44:02.868Z,68.30
2023-03-26T07:45:48.522Z,68.30
2023-03-26T07:47:34.657Z,68.20
2023-03-26T07:49:21.931Z,68.20
2023-03-26T07:51:11.144Z,68.30
2023-03-26T07:52:57.473Z,68.30
2023-03-26T07:54:44.176Z,68.30
2023-03-26T07:56:42.614Z,68.30
2023-03-26T07:58:56.768Z,68.30
2023-03-26T08:00:59.705Z,68.30
2023-03-26T08:02:47.624Z,68.30
2023-03-26T08:05:01.352Z,68.30
2023-03-26T08:07:02.060Z,68.30
2023-03-26T08:09:03.718Z,68.30
2023-03-26T08:11:17.776Z,68.20
2023-03-26T08:13:20.251Z,68.10
2023-03-26T08:15:07.997Z,68.00
2023-03-26T08:16:54.082Z,67.90
2023-03-26T08:18:44.668Z,67.90
2023-03-26T08:20:34.896Z,67.80
2023-03-26T08:22:17.542Z,68.00
2023-03-26T08:24:05.288Z,67.90
2023-03-26T08:25:54.301Z,67.90
2023-03-26T08:27:38.903Z,67.80
2023-03-26T08:29:24.831Z,67.70
2023-03-26T08:31:03.086Z,67.80
2023-03-26T08:32:37.457Z,67.90
2023-03-26T08:34:13.891Z,67.80
2023-03-26T08:35:48.571Z,67.70
2023-03-26T08:37:22.874Z,67.70
2023-03-26T08:38:57.432Z,67.60
2023-03-26T08:41:17.195Z,67.60
2023-03-26T08:50:43.629Z,67.10
2023-03-26T08:53:15.311Z,67.30
2023-03-26T08:55:22.194Z,67.30
2023-03-26T08:57:17.925Z,67.30
2023-03-26T08:59:30.733Z,67.30
2023-03-26T09:01:55.590Z,67.30
2023-03-26T09:04:08.146Z,67.50
2023-03-26T09:06:47.859Z,67.60
2023-03-26T09:09:24.752Z,67.60
2023-03-26T09:11:29.964Z,67.40
2023-03-26T09:13:47.770Z,67.40
2023-03-26T09:15:43.619Z,67.40
2023-03-26T09:18:06.550Z,67.30
2023-03-26T09:20:35.179Z,67.40
2023-03-26T09:22:48.924Z,67.30
2023-03-26T09:25:20.902Z,67.30
2023-03-26T09:27:10.891Z,67.30
2023-03-26T09:29:38.842Z,67.30
2023-03-26T09:31:43.688Z,67.30
2023-03-26T09:34:03.362Z,67.20
2023-03-26T09:35:56.851Z,67.20
2023-03-26T09:37:56.794Z,67.30
2023-03-26T09:39:45.698Z,67.40
2023-03-26T09:41:37.434Z,67.30
2023-03-26T09:43:56.830Z,67.20
2023-03-26T09:45:59.426Z,67.30
2023-03-26T09:48:27.218Z,67.20
2023-03-26T09:50:21.477Z,67.30
2023-03-26T09:52:19.748Z,67.20
2023-03-26T09:54:34.955Z,67.10
2023-03-26T09:56:26.721Z,67.10
2023-03-26T09:58:32.311Z,67.10
2023-03-26T10:00:25.335Z,67.20
2023-03-26T10:02:18.990Z,67.20
2023-03-26T10:04:20.209Z,67.20
2023-03-26T10:06:08.308Z,67.30
2023-03-26T10:08:06.802Z,67.30
2023-03-26T10:09:55.347Z,67.00
2023-03-26T10:11:51.016Z,66.80
2023-03-26T10:13:37.584Z,66.10
2023-03-26T10:15:27.534Z,65.70
2023-03-26T10:17:27.229Z,65.30
2023-03-26T10:19:31.149Z,64.50
2023-03-26T10:21:17.742Z,64.30
2023-03-26T10:23:08.907Z,64.10
2023-03-26T10:25:08.191Z,64.00
2023-03-26T10:27:11.357Z,64.00
2023-03-26T10:29:08.322Z,64.10
2023-03-26T10:31:14.971Z,63.90
2023-03-26T10:33:00.018Z,63.80
2023-03-26T10:34:56.962Z,63.80
2023-03-26T10:36:35.328Z,63.80
2023-03-26T10:38:25.366Z,64.00
2023-03-26T10:40:16.653Z,64.10
2023-03-26T10:42:01.658Z,63.90
2023-03-26T10:44:21.780Z,63.80
2023-03-26T10:46:26.101Z,63.60
2023-03-26T10:48:28.690Z,63.60
2023-03-26T10:50:32.035Z,63.60
2023-03-26T10:52:08.836Z,63.60
2023-03-26T10:53:50.525Z,63.60
2023-03-26T10:55:31.897Z,63.80
2023-03-26T10:57:22.634Z,64.00
2023-03-26T10:58:57.732Z,64.00
2023-03-26T11:00:31.526Z,64.00
2023-03-26T11:02:30.529Z,64.30
2023-03-26T11:04:16.233Z,64.40
2023-03-26T11:06:08.265Z,64.40
2023-03-26T11:07:53.808Z,64.10
2023-03-26T11:09:41.331Z,63.60
2023-03-26T11:11:29.180Z,63.00
2023-03-26T11:13:19.907Z,63.30
2023-03-26T11:15:08.713Z,62.70
2023-03-26T11:17:00.764Z,62.80
2023-03-26T11:18:46.650Z,62.90
2023-03-26T11:20:33.101Z,63.40
2023-03-26T11:22:18.624Z,63.50
2023-03-26T11:24:06.976Z,63.50
2023-03-26T11:26:00.279Z,63.60
2023-03-26T11:27:55.693Z,63.70
2023-03-26T11:29:48.182Z,63.70
2023-03-26T11:31:36.666Z,63.90
2023-03-26T11:33:19.163Z,64.30
2023-03-26T11:35:04.193Z,64.50
2023-03-26T11:36:45.035Z,64.50
2023-03-26T11:38:24.104Z,64.60
2023-03-26T11:40:03.706Z,64.80
2023-03-26T11:41:36.900Z,64.60
2023-03-26T11:43:37.456Z,64.50
2023-03-26T11:45:21.079Z,64.60
2023-03-26T11:47:04.724Z,64.30
2023-03-26T11:48:44.221Z,63.90
2023-03-26T11:50:26.309Z,63.90
2023-03-26T11:52:02.004Z,64.00
2023-03-26T11:53:40.656Z,64.00
2023-03-26T11:55:15.750Z,63.80
2023-03-26T11:57:04.458Z,63.30
2023-03-26T11:58:48.317Z,63.30
2023-03-26T12:00:27.329Z,63.40
2023-03-26T12:02:24.041Z,63.40
2023-03-26T12:04:03.976Z,63.80
2023-03-26T12:05:50.559Z,64.00
2023-03-26T12:07:32.338Z,64.20
2023-03-26T12:09:05.478Z,64.90
2023-03-26T12:10:42.751Z,63.90
2023-03-26T12:12:19.000Z,64.00
2023-03-26T12:13:59.286Z,63.20
2023-03-26T12:15:34.153Z,63.30
2023-03-26T12:17:09.741Z,63.30
2023-03-26T12:18:44.901Z,63.30
2023-03-26T12:20:36.750Z,63.40
2023-03-26T12:22:30.552Z,63.80
2023-03-26T12:24:05.991Z,64.30
2023-03-26T12:25:43.650Z,64.30
2023-03-26T12:27:28.233Z,64.30
2023-03-26T12:29:12.825Z,64.40
2023-03-26T12:31:00.727Z,64.50
2023-03-26T12:32:45.769Z,64.50
2023-03-26T12:34:21.838Z,64.60
2023-03-26T12:35:58.232Z,64.70
2023-03-26T12:37:37.720Z,64.70
2023-03-26T12:40:07.414Z,64.80
2023-03-26T12:44:42.139Z,64.70
2023-03-26T12:44:56.340Z,64.60
2023-03-26T12:45:42.240Z,64.60
2023-03-26T12:47:57.979Z,64.40
2023-03-26T12:49:15.949Z,64.20
2023-03-26T12:51:08.070Z,64.30
2023-03-26T12:53:06.125Z,64.20
2023-03-26T12:54:48.592Z,64.20
2023-03-26T12:56:36.037Z,64.40
2023-03-26T12:58:39.502Z,64.30
2023-03-26T13:00:28.708Z,64.40
2023-03-26T13:02:29.545Z,64.10
2023-03-26T13:05:02.171Z,64.10
2023-03-26T13:06:59.548Z,64.40
2023-03-26T13:09:20.919Z,64.50
2023-03-26T13:11:07.336Z,64.70
2023-03-26T13:12:52.720Z,64.70
2023-03-26T13:14:45.153Z,64.60
2023-03-26T13:16:32.383Z,64.50
2023-03-26T13:18:27.647Z,64.50
2023-03-26T13:20:12.153Z,64.20
2023-03-26T13:22:07.815Z,64.00
2023-03-26T13:23:52.946Z,64.10
2023-03-26T13:25:39.648Z,64.10
2023-03-26T13:27:29.403Z,64.20
2023-03-26T13:29:17.341Z,64.20
2023-03-26T13:31:03.251Z,64.10
2023-03-26T13:32:57.288Z,64.20
2023-03-26T13:34:42.311Z,64.30
2023-03-26T13:36:24.485Z,64.20
2023-03-26T13:38:09.789Z,64.10
2023-03-26T13:40:04.261Z,64.00
2023-03-26T13:41:58.856Z,63.90
2023-03-26T13:44:00.623Z,63.90
2023-03-26T13:45:48.937Z,63.90
2023-03-26T13:47:27.717Z,63.90
2023-03-26T13:49:05.292Z,64.10
2023-03-26T13:50:45.505Z,64.20
2023-03-26T13:52:26.006Z,64.10
2023-03-26T13:54:11.897Z,63.90
2023-03-26T13:55:51.380Z,63.80
2023-03-26T13:57:31.757Z,63.70
2023-03-26T13:59:13.439Z,63.80
2023-03-26T14:00:59.096Z,63.70
2023-03-26T14:02:39.878Z,63.80
2023-03-26T14:04:22.384Z,63.80
2023-03-26T14:06:01.996Z,64.10
2023-03-26T14:07:45.425Z,64.30
2023-03-26T14:09:27.744Z,64.50
2023-03-26T14:11:10.863Z,64.70
2023-03-26T14:12:55.919Z,64.80
2023-03-26T14:14:39.991Z,64.70
2023-03-26T14:16:20.014Z,64.70
2023-03-26T14:18:05.930Z,64.50
2023-03-26T14:20:27.347Z,64.70
2023-03-26T14:22:20.493Z,64.80
2023-03-26T14:24:29.813Z,64.40
2023-03-26T14:26:20.052Z,64.20
2023-03-26T14:28:14.823Z,64.50
2023-03-26T14:30:05.935Z,64.60
2023-03-26T14:31:51.551Z,64.30
2023-03-26T14:33:46.346Z,64.10
2023-03-26T14:35:37.327Z,64.20
2023-03-26T14:37:39.242Z,64.00
2023-03-26T14:39:50.370Z,64.10
2023-03-26T14:41:28.854Z,64.00
2023-03-26T14:43:56.620Z,64.10
2023-03-26T14:45:53.530Z,64.20
2023-03-26T14:47:27.756Z,64.20
2023-03-26T14:49:43.520Z,64.40
2023-03-26T14:51:44.965Z,64.40
2023-03-26T14:53:30.910Z,64.50
2023-03-26T14:55:16.861Z,64.60
2023-03-26T14:57:17.336Z,64.10
2023-03-26T15:05:08.081Z,63.80
2023-03-26T15:07:38.119Z,64.20
2023-03-26T15:10:03.132Z,64.20
2023-03-26T15:11:50.256Z,64.30
2023-03-26T15:13:49.340Z,63.80
2023-03-26T15:15:56.789Z,63.90
2023-03-26T15:18:18.807Z,63.90
2023-03-26T15:20:43.227Z,63.80
2023-03-26T15:23:10.560Z,63.40
2023-03-26T15:25:51.472Z,63.10
2023-03-26T15:27:51.901Z,63.10
2023-03-26T15:29:57.319Z,63.00
2023-03-26T15:32:07.842Z,63.00
2023-03-26T15:34:30.280Z,63.00
2023-03-26T15:37:02.710Z,63.00
2023-03-26T15:39:33.291Z,63.00
2023-03-26T15:41:18.371Z,63.10
2023-03-26T15:43:07.324Z,63.20
2023-03-26T15:44:54.534Z,63.40
2023-03-26T15:46:51.544Z,63.50
2023-03-26T15:48:57.768Z,63.60
2023-03-26T15:50:47.115Z,63.80
2023-03-26T15:52:34.159Z,63.80
2023-03-26T15:54:22.597Z,63.90
2023-03-26T15:56:25.551Z,63.90
2023-03-26T15:58:12.101Z,63.70
2023-03-26T16:00:12.171Z,63.60
2023-03-26T16:02:03.856Z,63.70
2023-03-26T16:03:52.307Z,63.60
2023-03-26T16:05:41.810Z,63.50
2023-03-26T16:07:41.167Z,63.60
2023-03-26T16:09:40.166Z,63.80
2023-03-26T16:11:15.537Z,63.80
2023-03-26T16:13:16.390Z,63.70
2023-03-26T16:15:29.574Z,63.70
2023-03-26T16:17:06.433Z,63.70
2023-03-26T16:18:42.785Z,63.70
2023-03-26T16:20:31.176Z,63.70
2023-03-26T16:22:09.591Z,63.60
2023-03-26T16:23:58.937Z,63.60
2023-03-26T16:25:36.399Z,63.90
2023-03-26T16:27:34.911Z,63.90
2023-03-26T16:29:22.032Z,64.10
2023-03-26T16:31:37.654Z,64.20
2023-03-26T16:33:16.083Z,64.40
2023-03-26T16:34:53.969Z,64.30
2023-03-26T16:36:35.242Z,64.40
2023-03-26T16:38:14.631Z,64.40
2023-03-26T16:39:50.311Z,64.20
2023-03-26T16:41:27.987Z,64.00
2023-03-26T16:43:43.805Z,63.90
2023-03-26T16:45:30.311Z,63.80
2023-03-26T16:47:16.034Z,63.80
2023-03-26T16:49:01.226Z,63.80
2023-03-26T16:50:48.489Z,63.70
2023-03-26T16:52:42.931Z,63.80
2023-03-26T16:54:25.335Z,64.00
2023-03-26T16:56:06.922Z,64.00
2023-03-26T16:57:53.611Z,64.00
2023-03-26T17:00:07.435Z,64.10
2023-03-26T17:01:48.173Z,64.20
2023-03-26T17:03:50.672Z,64.30
2023-03-26T17:05:37.171Z,64.50
2023-03-26T17:07:20.921Z,64.40
2023-03-26T17:09:04.881Z,64.60
2023-03-26T17:10:46.105Z,64.70
2023-03-26T17:12:34.309Z,64.80
2023-03-26T17:14:23.165Z,64.90
2023-03-26T17:16:11.511Z,64.80
2023-03-26T17:18:00.343Z,64.80
2023-03-26T17:19:47.618Z,64.80
2023-03-26T17:21:45.732Z,64.80
2023-03-26T17:23:39.430Z,64.90
2023-03-26T17:25:30.328Z,64.90
2023-03-26T17:27:31.885Z,64.90
2023-03-26T17:29:38.555Z,65.00
2023-03-26T17:31:24.541Z,64.90
2023-03-26T17:33:07.385Z,64.90
2023-03-26T17:35:02.003Z,64.80
2023-03-26T17:36:44.262Z,64.70
2023-03-26T17:39:03.263Z,64.70
2023-03-26T17:40:57.010Z,64.70
2023-03-26T17:42:35.526Z,64.70
2023-03-26T17:44:43.272Z,64.80
2023-03-26T17:46:30.278Z,65.10
2023-03-26T17:48:16.372Z,65.10
2023-03-26T17:49:56.145Z,65.20
2023-03-26T17:51:43.196Z,65.10
2023-03-26T17:53:24.356Z,65.20
2023-03-26T17:54:58.599Z,65.30
2023-03-26T17:56:37.530Z,65.30
2023-03-26T17:58:27.863Z,65.30
2023-03-26T18:00:03.917Z,65.50
2023-03-26T18:01:48.062Z,65.20
2023-03-26T18:03:30.995Z,65.10
2023-03-26T18:05:11.728Z,65.00
2023-03-26T18:07:11.802Z,65.00
2023-03-26T18:09:17.380Z,64.80
2023-03-26T18:11:19.381Z,64.90
2023-03-26T18:13:24.174Z,64.60
2023-03-26T18:15:38.148Z,64.60
2023-03-26T18:17:12.306Z,64.70
2023-03-26T18:18:52.000Z,64.50
2023-03-26T18:20:29.397Z,64.40
2023-03-26T18:22:07.271Z,64.50
2023-03-26T18:23:48.532Z,65.40
2023-03-26T18:25:27.452Z,64.60
2023-03-26T18:27:06.435Z,64.70
2023-03-26T18:28:44.098Z,64.70
2023-03-26T18:30:21.804Z,64.70
2023-03-26T18:32:00.287Z,64.70
2023-03-26T18:33:44.649Z,65.50
2023-03-26T18:35:21.010Z,64.90
2023-03-26T18:37:15.526Z,64.80
2023-03-26T18:38:49.051Z,64.80
2023-03-26T18:40:24.870Z,64.70
2023-03-26T18:41:59.697Z,64.60
2023-03-26T18:43:35.804Z,64.30
2023-03-26T18:45:29.066Z,64.00
2023-03-26T18:47:07.183Z,63.80
2023-03-26T18:48:40.872Z,63.80
2023-03-26T18:50:23.416Z,63.80
2023-03-26T18:51:57.801Z,63.70
2023-03-26T18:53:38.822Z,63.80
2023-03-26T18:55:15.355Z,63.80
2023-03-26T18:56:51.977Z,63.90
2023-03-26T18:58:29.948Z,64.10
2023-03-26T19:00:21.536Z,64.30
2023-03-26T19:01:58.440Z,65.10
2023-03-26T19:03:36.990Z,64.20
2023-03-26T19:05:16.486Z,64.30
2023-03-26T19:06:53.677Z,64.40
2023-03-26T19:08:27.600Z,64.40
2023-03-26T19:10:02.216Z,64.40
2023-03-26T19:11:40.177Z,64.40
2023-03-26T19:13:16.348Z,64.40
2023-03-26T19:14:58.093Z,64.40
2023-03-26T19:16:37.057Z,64.40
2023-03-26T19:18:15.285Z,64.40
2023-03-26T19:19:50.578Z,64.00
2023-03-26T19:21:24.358Z,63.90
2023-03-26T19:22:59.607Z,63.80
2023-03-26T19:24:34.134Z,63.70
2023-03-26T19:26:10.475Z,63.30
2023-03-26T19:27:44.262Z,63.00
2023-03-26T19:29:27.855Z,63.70
2023-03-26T19:31:10.659Z,62.90
2023-03-26T19:32:54.392Z,63.20
2023-03-26T19:34:34.750Z,63.30
2023-03-26T19:36:22.234Z,63.40
2023-03-26T19:37:55.640Z,63.70
2023-03-26T19:39:41.529Z,63.50
2023-03-26T19:41:24.156Z,63.70
2023-03-26T19:42:59.052Z,63.50
2023-03-26T19:44:32.557Z,63.40
2023-03-26T19:46:06.464Z,63.40
2023-03-26T19:47:52.145Z,63.30
2023-03-26T19:49:33.135Z,63.40
2023-03-26T19:51:07.367Z,63.40
2023-03-26T19:52:40.819Z,62.90
2023-03-26T19:54:19.327Z,63.10
2023-03-26T19:55:59.222Z,62.00
2023-03-26T19:57:36.342Z,61.80
2023-03-26T19:59:09.691Z,61.90
2023-03-26T20:00:43.075Z,62.00
2023-03-26T20:02:16.525Z,61.80
2023-03-26T20:03:52.865Z,61.80
2023-03-26T20:05:33.453Z,61.70
2023-03-26T20:07:14.750Z,61.60
2023-03-26T20:08:50.438Z,61.90
2023-03-26T20:10:24.177Z,61.90
2023-03-26T20:11:57.430Z,61.90
2023-03-26T20:13:31.151Z,61.50
2023-03-26T20:15:19.426Z,61.20
2023-03-26T20:16:53.637Z,61.00
2023-03-26T20:18:27.432Z,61.20
2023-03-26T20:20:00.674Z,61.30
2023-03-26T20:21:37.888Z,61.20
2023-03-26T20:23:18.725Z,61.00
2023-03-26T20:24:52.478Z,61.00
2023-03-26T20:26:26.512Z,61.00
2023-03-26T20:28:00.364Z,60.90
2023-03-26T20:29:34.305Z,60.60
2023-03-26T20:31:08.096Z,60.20
2023-03-26T20:32:43.674Z,60.00
2023-03-26T20:34:21.945Z,59.70
2023-03-26T20:35:57.127Z,58.90
2023-03-26T20:37:32.186Z,58.80
2023-03-26T20:39:06.572Z,58.90
2023-03-26T20:40:41.364Z,58.80
2023-03-26T20:42:16.020Z,58.80
2023-03-26T20:43:49.589Z,58.90
2023-03-26T20:45:24.299Z,58.80
2023-03-26T20:46:59.131Z,58.70
2023-03-26T20:48:32.717Z,58.70
2023-03-26T20:50:07.481Z,59.30
2023-03-26T20:51:41.804Z,58.70
2023-03-26T20:53:18.142Z,58.70
2023-03-26T20:54:52.070Z,58.70
2023-03-26T20:56:25.792Z,58.70
2023-03-26T20:57:59.648Z,58.60
2023-03-26T20:59:32.840Z,58.40
2023-03-26T21:01:06.898Z,58.10
2023-03-26T21:02:42.025Z,58.00
2023-03-26T21:04:19.038Z,57.70
2023-03-26T21:05:52.703Z,57.60
2023-03-26T21:07:25.844Z,57.60
2023-03-26T21:09:01.413Z,57.30
2023-03-26T21:10:36.068Z,57.20
2023-03-26T21:12:18.157Z,57.30
2023-03-26T21:14:01.136Z,57.40
2023-03-26T21:15:35.469Z,57.60
2023-03-26T21:17:15.728Z,57.40
2023-03-26T21:18:49.777Z,57.20
2023-03-26T21:20:25.524Z,57.30
2023-03-26T21:22:15.221Z,57.20
2023-03-26T21:23:59.142Z,57.30
2023-03-26T21:25:44.366Z,57.20
2023-03-26T21:27:27.075Z,57.20
2023-03-26T21:29:00.838Z,57.20
2023-03-26T21:30:35.538Z,57.20
2023-03-26T21:32:12.171Z,57.00
2023-03-26T21:33:46.452Z,56.80
2023-03-26T21:35:21.199Z,57.70
2023-03-26T21:36:58.044Z,57.80
2023-03-26T21:38:33.074Z,57.80
2023-03-26T21:40:14.900Z,57.70
2023-03-26T21:42:05.074Z,57.90
2023-03-26T21:43:39.200Z,57.70
2023-03-26T21:45:14.355Z,57.60
2023-03-26T21:46:49.200Z,57.70
2023-03-26T21:48:23.241Z,57.30
2023-03-26T21:49:57.232Z,57.50
2023-03-26T21:51:31.943Z,57.40
2023-03-26T21:53:05.854Z,57.20
2023-03-26T21:54:39.930Z,57.80
2023-03-26T21:56:31.383Z,57.20
2023-03-26T21:58:21.878Z,57.60
2023-03-26T22:00:14.595Z,57.90
2023-03-26T22:01:55.733Z,58.00
2023-03-26T22:03:38.473Z,58.20
2023-03-26T22:05:17.149Z,58.10
2023-03-26T22:06:58.129Z,57.90
2023-03-26T22:08:36.717Z,58.00
2023-03-26T22:10:10.010Z,58.00
2023-03-26T22:11:43.263Z,57.80
2023-03-26T22:13:17.894Z,57.50
2023-03-26T22:14:52.009Z,57.50
2023-03-26T22:16:25.456Z,57.70
2023-03-26T22:18:02.353Z,57.80
2023-03-26T22:19:35.876Z,58.00
2023-03-26T22:21:09.253Z,58.20
2023-03-26T22:22:49.055Z,58.20
2023-03-26T22:24:22.451Z,58.00
2023-03-26T22:25:56.185Z,57.80
2023-03-26T22:27:29.376Z,57.70
2023-03-26T22:29:04.194Z,57.80
2023-03-26T22:30:37.471Z,57.80
2023-03-26T22:32:10.775Z,57.80
2023-03-26T22:33:44.279Z,57.50
2023-03-26T22:35:17.223Z,57.40
2023-03-26T22:36:50.345Z,57.30
2023-03-26T22:38:23.564Z,57.30
2023-03-26T22:39:56.888Z,57.90
2023-03-26T22:41:30.312Z,57.40
2023-03-26T22:43:03.578Z,57.40
2023-03-26T22:44:38.449Z,57.60
2023-03-26T22:46:11.668Z,57.70
2023-03-26T22:47:44.877Z,57.60
2023-03-26T22:49:18.489Z,57.90
2023-03-26T22:50:59.702Z,58.00
2023-03-26T22:52:32.847Z,58.00